sensor_id;sensor_type;location;lat;lon;timestamp;P1;durP1;ratioP1;P2;durP2;ratioP2
595;SDS011;19946;49.306;11.350;2023-04-03T00:02:38;3.10;;;3.10;;
595;SDS011;19946;49.306;11.350;2023-04-03T00:05:38;2.93;;;2.93;;
595;SDS011;19946;49.306;11.350;2023-04-03T00:08:38;3.37;;;3.37;;
595;SDS011;19946;49.306;11.350;2023-04-03T00:11:40;3.13;;;3.13;;
595;SDS011;19946;49.306;11.350;2023-04-03T00:14:41;3.40;;;3.40;;
595;SDS011;19946;49.306;11.350;2023-04-03T00:17:41;3.10;;;3.10;;
595;SDS011;19946;49.306;11.350;2023-04-03T00:20:41;3.20;;;3.20;;
595;SDS011;19946;49.306;11.350;2023-04-03T00:23:42;2.83;;;2.83;;
595;SDS011;19946;49.306;11.350;2023-04-03T00:26:42;2.80;;;2.80;;
595;SDS011;19946;49.306;11.350;2023-04-03T00:29:42;3.23;;;3.23;;
595;SDS011;19946;49.306;11.350;2023-04-03T00:32:43;3.80;;;3.80;;
595;SDS011;19946;49.306;11.350;2023-04-03T00:35:44;3.00;;;3.00;;
595;SDS011;19946;49.306;11.350;2023-04-03T00:38:44;3.30;;;3.30;;
595;SDS011;19946;49.306;11.350;2023-04-03T00:41:45;2.90;;;2.90;;
595;SDS011;19946;49.306;11.350;2023-04-03T00:47:46;3.10;;;3.10;;
595;SDS011;19946;49.306;11.350;2023-04-03T00:50:46;2.90;;;2.90;;
595;SDS011;19946;49.306;11.350;2023-04-03T00:53:52;2.93;;;2.93;;
595;SDS011;19946;49.306;11.350;2023-04-03T00:56:56;2.80;;;2.80;;
595;SDS011;19946;49.306;11.350;2023-04-03T00:59:59;2.80;;;2.80;;
595;SDS011;19946;49.306;11.350;2023-04-03T01:03:05;2.73;;;2.73;;
595;SDS011;19946;49.306;11.350;2023-04-03T01:06:06;2.60;;;2.60;;
595;SDS011;19946;49.306;11.350;2023-04-03T01:09:07;3.00;;;3.00;;
595;SDS011;19946;49.306;11.350;2023-04-03T01:12:21;2.90;;;2.90;;
595;SDS011;19946;49.306;11.350;2023-04-03T01:15:24;2.70;;;2.70;;
595;SDS011;19946;49.306;11.350;2023-04-03T01:18:26;2.70;;;2.70;;
595;SDS011;19946;49.306;11.350;2023-04-03T01:21:40;2.80;;;2.80;;
595;SDS011;19946;49.306;11.350;2023-04-03T01:24:54;2.93;;;2.93;;
595;SDS011;19946;49.306;11.350;2023-04-03T01:27:54;3.30;;;3.30;;
595;SDS011;19946;49.306;11.350;2023-04-03T01:34:10;3.30;;;3.30;;
595;SDS011;19946;49.306;11.350;2023-04-03T01:37:10;3.60;;;3.60;;
595;SDS011;19946;49.306;11.350;2023-04-03T01:40:11;3.30;;;3.30;;
595;SDS011;19946;49.306;11.350;2023-04-03T01:43:12;2.80;;;2.80;;
595;SDS011;19946;49.306;11.350;2023-04-03T01:46:12;3.00;;;3.00;;
595;SDS011;19946;49.306;11.350;2023-04-03T01:49:12;3.50;;;3.50;;
595;SDS011;19946;49.306;11.350;2023-04-03T01:52:13;4.50;;;4.50;;
595;SDS011;19946;49.306;11.350;2023-04-03T01:55:13;3.63;;;3.63;;
595;SDS011;19946;49.306;11.350;2023-04-03T01:58:15;5.37;;;5.37;;
595;SDS011;19946;49.306;11.350;2023-04-03T02:01:15;4.80;;;4.80;;
595;SDS011;19946;49.306;11.350;2023-04-03T02:04:16;7.03;;;6.93;;
595;SDS011;19946;49.306;11.350;2023-04-03T02:07:16;5.57;;;5.57;;
595;SDS011;19946;49.306;11.350;2023-04-03T02:10:16;5.87;;;5.80;;
595;SDS011;19946;49.306;11.350;2023-04-03T02:13:17;4.70;;;4.70;;
595;SDS011;19946;49.306;11.350;2023-04-03T02:16:19;4.37;;;4.37;;
595;SDS011;19946;49.306;11.350;2023-04-03T02:19:19;3.50;;;3.50;;
595;SDS011;19946;49.306;11.350;2023-04-03T02:22:19;3.20;;;3.20;;
595;SDS011;19946;49.306;11.350;2023-04-03T02:25:20;2.60;;;2.60;;
595;SDS011;19946;49.306;11.350;2023-04-03T02:28:20;2.80;;;2.80;;
595;SDS011;19946;49.306;11.350;2023-04-03T02:31:20;3.30;;;3.30;;
595;SDS011;19946;49.306;11.350;2023-04-03T02:34:22;4.80;;;4.80;;
595;SDS011;19946;49.306;11.350;2023-04-03T02:37:23;4.30;;;4.30;;
595;SDS011;19946;49.306;11.350;2023-04-03T02:40:25;5.00;;;5.00;;
595;SDS011;19946;49.306;11.350;2023-04-03T02:43:25;6.87;;;6.77;;
595;SDS011;19946;49.306;11.350;2023-04-03T02:46:26;7.57;;;7.47;;
595;SDS011;19946;49.306;11.350;2023-04-03T02:49:26;4.90;;;4.90;;
595;SDS011;19946;49.306;11.350;2023-04-03T02:52:26;3.80;;;3.80;;
595;SDS011;19946;49.306;11.350;2023-04-03T02:55:29;3.63;;;3.63;;
595;SDS011;19946;49.306;11.350;2023-04-03T02:58:30;3.67;;;3.67;;
595;SDS011;19946;49.306;11.350;2023-04-03T03:01:32;3.70;;;3.70;;
595;SDS011;19946;49.306;11.350;2023-04-03T03:04:33;3.70;;;3.70;;
595;SDS011;19946;49.306;11.350;2023-04-03T03:07:33;3.93;;;3.93;;
595;SDS011;19946;49.306;11.350;2023-04-03T03:10:34;4.80;;;4.80;;
595;SDS011;19946;49.306;11.350;2023-04-03T03:13:35;4.10;;;4.10;;
595;SDS011;19946;49.306;11.350;2023-04-03T03:16:36;4.20;;;4.20;;
595;SDS011;19946;49.306;11.350;2023-04-03T03:19:36;3.20;;;3.20;;
595;SDS011;19946;49.306;11.350;2023-04-03T03:22:36;3.40;;;3.40;;
595;SDS011;19946;49.306;11.350;2023-04-03T03:25:38;3.50;;;3.50;;
595;SDS011;19946;49.306;11.350;2023-04-03T03:28:41;3.00;;;3.00;;
595;SDS011;19946;49.306;11.350;2023-04-03T03:31:41;3.13;;;3.13;;
595;SDS011;19946;49.306;11.350;2023-04-03T03:34:41;3.00;;;3.00;;
595;SDS011;19946;49.306;11.350;2023-04-03T03:37:42;3.13;;;3.13;;
595;SDS011;19946;49.306;11.350;2023-04-03T03:40:42;3.20;;;3.20;;
595;SDS011;19946;49.306;11.350;2023-04-03T03:43:43;3.63;;;3.63;;
595;SDS011;19946;49.306;11.350;2023-04-03T03:46:44;3.50;;;3.50;;
595;SDS011;19946;49.306;11.350;2023-04-03T03:49:45;3.63;;;3.63;;
595;SDS011;19946;49.306;11.350;2023-04-03T03:52:45;3.67;;;3.67;;
595;SDS011;19946;49.306;11.350;2023-04-03T03:55:46;3.93;;;3.93;;
595;SDS011;19946;49.306;11.350;2023-04-03T03:58:46;4.27;;;4.27;;
595;SDS011;19946;49.306;11.350;2023-04-03T04:01:47;4.60;;;4.60;;
595;SDS011;19946;49.306;11.350;2023-04-03T04:04:48;3.70;;;3.70;;
595;SDS011;19946;49.306;11.350;2023-04-03T04:07:49;3.70;;;3.70;;
595;SDS011;19946;49.306;11.350;2023-04-03T04:10:49;2.90;;;2.90;;
595;SDS011;19946;49.306;11.350;2023-04-03T04:13:51;2.90;;;2.90;;
595;SDS011;19946;49.306;11.350;2023-04-03T04:16:54;2.90;;;2.90;;
595;SDS011;19946;49.306;11.350;2023-04-03T04:19:59;2.80;;;2.80;;
595;SDS011;19946;49.306;11.350;2023-04-03T04:22:59;3.50;;;3.50;;
595;SDS011;19946;49.306;11.350;2023-04-03T04:26:00;3.17;;;3.17;;
595;SDS011;19946;49.306;11.350;2023-04-03T04:29:03;3.40;;;3.40;;
595;SDS011;19946;49.306;11.350;2023-04-03T04:32:06;2.80;;;2.80;;
595;SDS011;19946;49.306;11.350;2023-04-03T04:35:06;3.00;;;3.00;;
595;SDS011;19946;49.306;11.350;2023-04-03T04:38:10;2.90;;;2.90;;
595;SDS011;19946;49.306;11.350;2023-04-03T04:41:11;2.60;;;2.60;;
595;SDS011;19946;49.306;11.350;2023-04-03T04:44:12;2.90;;;2.90;;
595;SDS011;19946;49.306;11.350;2023-04-03T04:47:12;3.40;;;3.40;;
595;SDS011;19946;49.306;11.350;2023-04-03T04:50:14;3.43;;;3.43;;
595;SDS011;19946;49.306;11.350;2023-04-03T04:53:15;3.30;;;3.30;;
595;SDS011;19946;49.306;11.350;2023-04-03T04:56:16;3.10;;;3.10;;
595;SDS011;19946;49.306;11.350;2023-04-03T04:59:17;3.27;;;3.27;;
595;SDS011;19946;49.306;11.350;2023-04-03T05:02:17;3.73;;;3.73;;
595;SDS011;19946;49.306;11.350;2023-04-03T05:05:19;3.80;;;3.80;;
595;SDS011;19946;49.306;11.350;2023-04-03T05:08:20;3.10;;;3.10;;
595;SDS011;19946;49.306;11.350;2023-04-03T05:11:21;3.90;;;3.90;;
595;SDS011;19946;49.306;11.350;2023-04-03T05:14:24;3.40;;;3.40;;
595;SDS011;19946;49.306;11.350;2023-04-03T05:17:24;3.53;;;3.53;;
595;SDS011;19946;49.306;11.350;2023-04-03T05:20:28;4.00;;;4.00;;
595;SDS011;19946;49.306;11.350;2023-04-03T05:23:29;3.40;;;3.40;;
595;SDS011;19946;49.306;11.350;2023-04-03T05:26:32;3.90;;;3.90;;
595;SDS011;19946;49.306;11.350;2023-04-03T05:29:33;3.40;;;3.40;;
595;SDS011;19946;49.306;11.350;2023-04-03T05:32:34;3.50;;;3.50;;
595;SDS011;19946;49.306;11.350;2023-04-03T05:36:04;3.40;;;3.40;;
595;SDS011;19946;49.306;11.350;2023-04-03T05:39:08;3.30;;;3.30;;
595;SDS011;19946;49.306;11.350;2023-04-03T05:42:12;2.90;;;2.90;;
595;SDS011;19946;49.306;11.350;2023-04-03T05:45:13;3.20;;;3.20;;
595;SDS011;19946;49.306;11.350;2023-04-03T05:48:14;2.80;;;2.80;;
595;SDS011;19946;49.306;11.350;2023-04-03T05:51:17;3.10;;;3.10;;
595;SDS011;19946;49.306;11.350;2023-04-03T05:54:25;3.07;;;3.07;;
595;SDS011;19946;49.306;11.350;2023-04-03T05:57:33;3.43;;;3.43;;
595;SDS011;19946;49.306;11.350;2023-04-03T06:00:33;3.60;;;3.60;;
595;SDS011;19946;49.306;11.350;2023-04-03T06:03:36;3.30;;;3.30;;
595;SDS011;19946;49.306;11.350;2023-04-03T06:06:46;3.80;;;3.80;;
595;SDS011;19946;49.306;11.350;2023-04-03T06:09:50;3.57;;;3.57;;
595;SDS011;19946;49.306;11.350;2023-04-03T06:12:51;3.50;;;3.50;;
595;SDS011;19946;49.306;11.350;2023-04-03T06:15:51;3.20;;;3.20;;
595;SDS011;19946;49.306;11.350;2023-04-03T06:18:52;3.10;;;3.10;;
595;SDS011;19946;49.306;11.350;2023-04-03T06:21:52;2.70;;;2.70;;
595;SDS011;19946;49.306;11.350;2023-04-03T06:24:53;3.27;;;3.27;;
595;SDS011;19946;49.306;11.350;2023-04-03T06:27:54;3.13;;;3.13;;
595;SDS011;19946;49.306;11.350;2023-04-03T06:30:55;2.50;;;2.50;;
595;SDS011;19946;49.306;11.350;2023-04-03T06:33:55;3.00;;;3.00;;
595;SDS011;19946;49.306;11.350;2023-04-03T06:36:56;2.87;;;2.87;;
595;SDS011;19946;49.306;11.350;2023-04-03T06:39:57;3.00;;;3.00;;
595;SDS011;19946;49.306;11.350;2023-04-03T06:42:57;2.40;;;2.40;;
595;SDS011;19946;49.306;11.350;2023-04-03T06:45:57;2.60;;;2.60;;
595;SDS011;19946;49.306;11.350;2023-04-03T06:48:58;2.50;;;2.50;;
595;SDS011;19946;49.306;11.350;2023-04-03T06:51:58;3.00;;;3.00;;
595;SDS011;19946;49.306;11.350;2023-04-03T06:54:58;2.90;;;2.90;;
595;SDS011;19946;49.306;11.350;2023-04-03T06:58:00;3.40;;;3.40;;
595;SDS011;19946;49.306;11.350;2023-04-03T07:01:00;3.10;;;3.10;;
595;SDS011;19946;49.306;11.350;2023-04-03T07:04:01;3.20;;;3.20;;
595;SDS011;19946;49.306;11.350;2023-04-03T07:07:01;2.87;;;2.87;;
595;SDS011;19946;49.306;11.350;2023-04-03T07:10:01;2.67;;;2.67;;
595;SDS011;19946;49.306;11.350;2023-04-03T07:13:02;2.90;;;2.90;;
595;SDS011;19946;49.306;11.350;2023-04-03T07:16:02;3.00;;;3.00;;
595;SDS011;19946;49.306;11.350;2023-04-03T07:19:04;3.00;;;3.00;;
595;SDS011;19946;49.306;11.350;2023-04-03T07:22:05;2.90;;;2.90;;
595;SDS011;19946;49.306;11.350;2023-04-03T07:25:05;3.00;;;3.00;;
595;SDS011;19946;49.306;11.350;2023-04-03T07:28:07;3.20;;;3.20;;
595;SDS011;19946;49.306;11.350;2023-04-03T07:31:10;3.10;;;3.10;;
595;SDS011;19946;49.306;11.350;2023-04-03T07:34:13;3.10;;;3.10;;
595;SDS011;19946;49.306;11.350;2023-04-03T07:37:13;3.47;;;3.47;;
595;SDS011;19946;49.306;11.350;2023-04-03T07:40:14;3.10;;;3.10;;
595;SDS011;19946;49.306;11.350;2023-04-03T07:43:15;3.20;;;3.20;;
595;SDS011;19946;49.306;11.350;2023-04-03T07:46:16;3.30;;;3.30;;
595;SDS011;19946;49.306;11.350;2023-04-03T07:49:17;3.20;;;3.20;;
595;SDS011;19946;49.306;11.350;2023-04-03T07:52:23;3.70;;;3.70;;
595;SDS011;19946;49.306;11.350;2023-04-03T07:55:24;3.30;;;3.30;;
595;SDS011;19946;49.306;11.350;2023-04-03T07:58:25;3.30;;;3.30;;
595;SDS011;19946;49.306;11.350;2023-04-03T08:01:25;3.80;;;3.80;;
595;SDS011;19946;49.306;11.350;2023-04-03T08:04:26;3.90;;;3.90;;
595;SDS011;19946;49.306;11.350;2023-04-03T08:07:26;3.90;;;3.90;;
595;SDS011;19946;49.306;11.350;2023-04-03T08:10:27;3.60;;;3.60;;
595;SDS011;19946;49.306;11.350;2023-04-03T08:13:30;3.53;;;3.53;;
595;SDS011;19946;49.306;11.350;2023-04-03T08:16:30;4.03;;;4.03;;
595;SDS011;19946;49.306;11.350;2023-04-03T08:19:31;3.53;;;3.53;;
595;SDS011;19946;49.306;11.350;2023-04-03T08:22:31;3.40;;;3.40;;
595;SDS011;19946;49.306;11.350;2023-04-03T08:25:32;3.80;;;3.80;;
595;SDS011;19946;49.306;11.350;2023-04-03T08:28:33;3.80;;;3.80;;
595;SDS011;19946;49.306;11.350;2023-04-03T08:31:34;3.70;;;3.70;;
595;SDS011;19946;49.306;11.350;2023-04-03T08:34:34;3.90;;;3.90;;
595;SDS011;19946;49.306;11.350;2023-04-03T08:37:37;3.90;;;3.90;;
595;SDS011;19946;49.306;11.350;2023-04-03T08:40:38;4.17;;;4.17;;
595;SDS011;19946;49.306;11.350;2023-04-03T08:43:56;4.60;;;4.60;;
595;SDS011;19946;49.306;11.350;2023-04-03T08:47:04;4.67;;;4.67;;
595;SDS011;19946;49.306;11.350;2023-04-03T08:50:15;4.20;;;4.20;;
595;SDS011;19946;49.306;11.350;2023-04-03T08:53:20;4.20;;;4.20;;
595;SDS011;19946;49.306;11.350;2023-04-03T08:56:23;4.50;;;4.50;;
595;SDS011;19946;49.306;11.350;2023-04-03T08:59:26;3.87;;;3.87;;
595;SDS011;19946;49.306;11.350;2023-04-03T09:02:34;4.30;;;4.30;;
595;SDS011;19946;49.306;11.350;2023-04-03T09:05:47;4.00;;;4.00;;
595;SDS011;19946;49.306;11.350;2023-04-03T09:18:52;4.90;;;4.90;;
595;SDS011;19946;49.306;11.350;2023-04-03T09:22:31;4.33;;;4.33;;
595;SDS011;19946;49.306;11.350;2023-04-03T09:25:38;4.30;;;4.30;;
595;SDS011;19946;49.306;11.350;2023-04-03T09:28:42;4.57;;;4.57;;
595;SDS011;19946;49.306;11.350;2023-04-03T09:42:28;3.80;;;3.80;;
595;SDS011;19946;49.306;11.350;2023-04-03T09:45:34;3.73;;;3.73;;
595;SDS011;19946;49.306;11.350;2023-04-03T09:48:36;4.10;;;4.10;;
595;SDS011;19946;49.306;11.350;2023-04-03T09:51:37;3.80;;;3.80;;
595;SDS011;19946;49.306;11.350;2023-04-03T09:54:45;3.80;;;3.80;;
595;SDS011;19946;49.306;11.350;2023-04-03T09:57:46;3.70;;;3.70;;
595;SDS011;19946;49.306;11.350;2023-04-03T10:00:56;3.50;;;3.50;;
595;SDS011;19946;49.306;11.350;2023-04-03T10:07:41;3.20;;;3.20;;
595;SDS011;19946;49.306;11.350;2023-04-03T10:10:42;3.20;;;3.20;;
595;SDS011;19946;49.306;11.350;2023-04-03T10:17:22;3.40;;;3.40;;
595;SDS011;19946;49.306;11.350;2023-04-03T10:20:37;3.50;;;3.50;;
595;SDS011;19946;49.306;11.350;2023-04-03T10:23:49;3.40;;;3.40;;
595;SDS011;19946;49.306;11.350;2023-04-03T11:36:45;2.70;;;2.70;;
595;SDS011;19946;49.306;11.350;2023-04-03T11:39:51;2.77;;;2.77;;
595;SDS011;19946;49.306;11.350;2023-04-03T11:46:04;2.80;;;2.80;;
595;SDS011;19946;49.306;11.350;2023-04-03T11:49:08;3.13;;;3.13;;
595;SDS011;19946;49.306;11.350;2023-04-03T11:56:27;2.70;;;2.70;;
595;SDS011;19946;49.306;11.350;2023-04-03T11:59:36;2.70;;;2.70;;
595;SDS011;19946;49.306;11.350;2023-04-03T12:02:37;3.03;;;3.03;;
595;SDS011;19946;49.306;11.350;2023-04-03T12:05:38;3.10;;;3.10;;
595;SDS011;19946;49.306;11.350;2023-04-03T12:11:41;3.40;;;3.40;;
595;SDS011;19946;49.306;11.350;2023-04-03T12:14:44;3.30;;;3.30;;
595;SDS011;19946;49.306;11.350;2023-04-03T12:17:44;3.43;;;3.43;;
595;SDS011;19946;49.306;11.350;2023-04-03T12:27:07;3.20;;;3.20;;
595;SDS011;19946;49.306;11.350;2023-04-03T12:30:25;3.60;;;3.60;;
595;SDS011;19946;49.306;11.350;2023-04-03T12:33:38;3.20;;;3.20;;
595;SDS011;19946;49.306;11.350;2023-04-03T12:37:09;3.27;;;3.27;;
595;SDS011;19946;49.306;11.350;2023-04-03T12:44:04;2.70;;;2.70;;
595;SDS011;19946;49.306;11.350;2023-04-03T12:47:31;2.60;;;2.60;;
595;SDS011;19946;49.306;11.350;2023-04-03T12:50:33;2.43;;;2.43;;
595;SDS011;19946;49.306;11.350;2023-04-03T12:53:34;2.50;;;2.50;;
595;SDS011;19946;49.306;11.350;2023-04-03T12:56:39;2.30;;;2.30;;
595;SDS011;19946;49.306;11.350;2023-04-03T12:59:40;2.60;;;2.60;;
595;SDS011;19946;49.306;11.350;2023-04-03T13:02:43;2.90;;;2.90;;
595;SDS011;19946;49.306;11.350;2023-04-03T13:05:48;3.33;;;3.33;;
595;SDS011;19946;49.306;11.350;2023-04-03T13:09:17;3.00;;;3.00;;
595;SDS011;19946;49.306;11.350;2023-04-03T13:12:24;2.47;;;2.47;;
595;SDS011;19946;49.306;11.350;2023-04-03T13:15:26;2.47;;;2.47;;
595;SDS011;19946;49.306;11.350;2023-04-03T13:18:33;2.90;;;2.90;;
595;SDS011;19946;49.306;11.350;2023-04-03T13:21:35;2.60;;;2.60;;
595;SDS011;19946;49.306;11.350;2023-04-03T13:24:36;2.80;;;2.80;;
595;SDS011;19946;49.306;11.350;2023-04-03T13:27:39;3.30;;;3.30;;
595;SDS011;19946;49.306;11.350;2023-04-03T13:34:16;2.87;;;2.87;;
595;SDS011;19946;49.306;11.350;2023-04-03T13:37:26;2.30;;;2.30;;
595;SDS011;19946;49.306;11.350;2023-04-03T13:40:28;2.40;;;2.40;;
595;SDS011;19946;49.306;11.350;2023-04-03T13:43:30;2.10;;;2.10;;
595;SDS011;19946;49.306;11.350;2023-04-03T13:46:32;2.17;;;2.17;;
595;SDS011;19946;49.306;11.350;2023-04-03T13:49:35;2.37;;;2.37;;
595;SDS011;19946;49.306;11.350;2023-04-03T14:02:16;2.33;;;2.33;;
595;SDS011;19946;49.306;11.350;2023-04-03T14:05:19;2.00;;;2.00;;
595;SDS011;19946;49.306;11.350;2023-04-03T14:08:21;2.10;;;2.10;;
595;SDS011;19946;49.306;11.350;2023-04-03T14:11:24;2.30;;;2.30;;
595;SDS011;19946;49.306;11.350;2023-04-03T14:14:30;2.10;;;2.10;;
595;SDS011;19946;49.306;11.350;2023-04-03T14:17:35;2.40;;;2.40;;
595;SDS011;19946;49.306;11.350;2023-04-03T14:20:35;2.20;;;2.20;;
595;SDS011;19946;49.306;11.350;2023-04-03T14:23:36;1.80;;;1.80;;
595;SDS011;19946;49.306;11.350;2023-04-03T14:26:36;2.00;;;2.00;;
595;SDS011;19946;49.306;11.350;2023-04-03T14:29:39;1.77;;;1.77;;
595;SDS011;19946;49.306;11.350;2023-04-03T14:32:39;1.60;;;1.60;;
595;SDS011;19946;49.306;11.350;2023-04-03T14:35:40;1.90;;;1.90;;
595;SDS011;19946;49.306;11.350;2023-04-03T14:38:41;2.00;;;2.00;;
595;SDS011;19946;49.306;11.350;2023-04-03T14:41:44;2.00;;;2.00;;
595;SDS011;19946;49.306;11.350;2023-04-03T14:44:45;1.90;;;1.90;;
595;SDS011;19946;49.306;11.350;2023-04-03T14:47:46;1.87;;;1.87;;
595;SDS011;19946;49.306;11.350;2023-04-03T14:50:49;1.80;;;1.80;;
595;SDS011;19946;49.306;11.350;2023-04-03T14:53:50;1.30;;;1.30;;
595;SDS011;19946;49.306;11.350;2023-04-03T14:56:51;1.50;;;1.50;;
595;SDS011;19946;49.306;11.350;2023-04-03T14:59:52;1.70;;;1.70;;
595;SDS011;19946;49.306;11.350;2023-04-03T15:02:52;1.40;;;1.40;;
595;SDS011;19946;49.306;11.350;2023-04-03T15:05:53;1.60;;;1.60;;
595;SDS011;19946;49.306;11.350;2023-04-03T15:08:54;1.50;;;1.50;;
595;SDS011;19946;49.306;11.350;2023-04-03T15:11:55;1.70;;;1.70;;
595;SDS011;19946;49.306;11.350;2023-04-03T15:14:56;1.33;;;1.33;;
595;SDS011;19946;49.306;11.350;2023-04-03T15:17:56;1.20;;;1.20;;
595;SDS011;19946;49.306;11.350;2023-04-03T15:20:58;1.30;;;1.30;;
595;SDS011;19946;49.306;11.350;2023-04-03T15:23:58;1.17;;;1.17;;
595;SDS011;19946;49.306;11.350;2023-04-03T15:27:00;1.30;;;1.30;;
595;SDS011;19946;49.306;11.350;2023-04-03T15:30:00;1.30;;;1.30;;
595;SDS011;19946;49.306;11.350;2023-04-03T15:33:01;1.30;;;1.30;;
595;SDS011;19946;49.306;11.350;2023-04-03T15:36:02;1.30;;;1.30;;
595;SDS011;19946;49.306;11.350;2023-04-03T15:39:03;1.30;;;1.30;;
595;SDS011;19946;49.306;11.350;2023-04-03T15:42:04;1.13;;;1.13;;
595;SDS011;19946;49.306;11.350;2023-04-03T15:45:06;1.20;;;1.20;;
595;SDS011;19946;49.306;11.350;2023-04-03T15:48:07;1.20;;;1.20;;
595;SDS011;19946;49.306;11.350;2023-04-03T15:51:08;1.10;;;1.10;;
595;SDS011;19946;49.306;11.350;2023-04-03T15:54:09;1.00;;;1.00;;
595;SDS011;19946;49.306;11.350;2023-04-03T15:57:09;0.90;;;0.90;;
595;SDS011;19946;49.306;11.350;2023-04-03T16:00:10;0.80;;;0.80;;
595;SDS011;19946;49.306;11.350;2023-04-03T16:03:14;0.80;;;0.80;;
595;SDS011;19946;49.306;11.350;2023-04-03T16:06:18;0.80;;;0.80;;
595;SDS011;19946;49.306;11.350;2023-04-03T16:09:18;1.00;;;1.00;;
595;SDS011;19946;49.306;11.350;2023-04-03T16:12:19;0.83;;;0.83;;
595;SDS011;19946;49.306;11.350;2023-04-03T16:15:19;0.80;;;0.80;;
595;SDS011;19946;49.306;11.350;2023-04-03T16:18:20;0.70;;;0.70;;
595;SDS011;19946;49.306;11.350;2023-04-03T16:21:21;0.60;;;0.60;;
595;SDS011;19946;49.306;11.350;2023-04-03T16:24:22;0.83;;;0.83;;
595;SDS011;19946;49.306;11.350;2023-04-03T16:27:23;0.70;;;0.70;;
595;SDS011;19946;49.306;11.350;2023-04-03T16:30:27;0.90;;;0.90;;
595;SDS011;19946;49.306;11.350;2023-04-03T16:33:28;0.70;;;0.70;;
595;SDS011;19946;49.306;11.350;2023-04-03T16:36:30;0.70;;;0.70;;
595;SDS011;19946;49.306;11.350;2023-04-03T16:39:30;0.67;;;0.67;;
595;SDS011;19946;49.306;11.350;2023-04-03T16:42:30;0.70;;;0.70;;
595;SDS011;19946;49.306;11.350;2023-04-03T16:45:31;0.70;;;0.70;;
595;SDS011;19946;49.306;11.350;2023-04-03T16:48:31;0.60;;;0.60;;
595;SDS011;19946;49.306;11.350;2023-04-03T16:51:31;0.60;;;0.60;;
595;SDS011;19946;49.306;11.350;2023-04-03T16:54:50;0.60;;;0.60;;
595;SDS011;19946;49.306;11.350;2023-04-03T16:57:55;0.70;;;0.70;;
595;SDS011;19946;49.306;11.350;2023-04-03T17:00:55;0.50;;;0.50;;
595;SDS011;19946;49.306;11.350;2023-04-03T17:03:55;0.60;;;0.60;;
595;SDS011;19946;49.306;11.350;2023-04-03T17:06:56;0.60;;;0.60;;
595;SDS011;19946;49.306;11.350;2023-04-03T17:09:57;0.50;;;0.50;;
595;SDS011;19946;49.306;11.350;2023-04-03T17:12:57;0.50;;;0.50;;
595;SDS011;19946;49.306;11.350;2023-04-03T17:15:58;0.60;;;0.60;;
595;SDS011;19946;49.306;11.350;2023-04-03T17:18:58;0.60;;;0.60;;
595;SDS011;19946;49.306;11.350;2023-04-03T17:22:00;0.50;;;0.50;;
595;SDS011;19946;49.306;11.350;2023-04-03T17:25:00;0.50;;;0.50;;
595;SDS011;19946;49.306;11.350;2023-04-03T17:28:02;0.50;;;0.50;;
595;SDS011;19946;49.306;11.350;2023-04-03T17:31:02;0.50;;;0.50;;
595;SDS011;19946;49.306;11.350;2023-04-03T17:34:03;0.50;;;0.50;;
595;SDS011;19946;49.306;11.350;2023-04-03T17:37:03;0.60;;;0.60;;
595;SDS011;19946;49.306;11.350;2023-04-03T17:40:04;0.60;;;0.60;;
595;SDS011;19946;49.306;11.350;2023-04-03T17:43:05;0.60;;;0.60;;
595;SDS011;19946;49.306;11.350;2023-04-03T17:46:07;0.50;;;0.50;;
595;SDS011;19946;49.306;11.350;2023-04-03T17:49:08;0.77;;;0.77;;
595;SDS011;19946;49.306;11.350;2023-04-03T17:52:13;0.50;;;0.50;;
595;SDS011;19946;49.306;11.350;2023-04-03T17:55:14;0.50;;;0.50;;
595;SDS011;19946;49.306;11.350;2023-04-03T17:58:16;0.50;;;0.50;;
595;SDS011;19946;49.306;11.350;2023-04-03T18:01:18;0.47;;;0.47;;
595;SDS011;19946;49.306;11.350;2023-04-03T18:04:23;0.50;;;0.50;;
595;SDS011;19946;49.306;11.350;2023-04-03T18:07:24;0.50;;;0.50;;
595;SDS011;19946;49.306;11.350;2023-04-03T18:10:25;0.40;;;0.40;;
595;SDS011;19946;49.306;11.350;2023-04-03T18:13:25;0.40;;;0.40;;
595;SDS011;19946;49.306;11.350;2023-04-03T18:16:26;0.60;;;0.60;;
595;SDS011;19946;49.306;11.350;2023-04-03T18:19:26;0.50;;;0.50;;
595;SDS011;19946;49.306;11.350;2023-04-03T18:22:27;0.50;;;0.50;;
595;SDS011;19946;49.306;11.350;2023-04-03T18:25:30;0.50;;;0.50;;
595;SDS011;19946;49.306;11.350;2023-04-03T18:28:32;0.50;;;0.50;;
595;SDS011;19946;49.306;11.350;2023-04-03T18:31:33;0.60;;;0.60;;
595;SDS011;19946;49.306;11.350;2023-04-03T18:34:35;0.47;;;0.47;;
595;SDS011;19946;49.306;11.350;2023-04-03T18:37:36;0.40;;;0.40;;
595;SDS011;19946;49.306;11.350;2023-04-03T18:40:36;0.60;;;0.60;;
595;SDS011;19946;49.306;11.350;2023-04-03T18:43:37;0.60;;;0.60;;
595;SDS011;19946;49.306;11.350;2023-04-03T18:46:39;0.50;;;0.50;;
595;SDS011;19946;49.306;11.350;2023-04-03T18:49:39;0.50;;;0.50;;
595;SDS011;19946;49.306;11.350;2023-04-03T18:52:43;0.40;;;0.40;;
595;SDS011;19946;49.306;11.350;2023-04-03T18:55:43;0.43;;;0.43;;
595;SDS011;19946;49.306;11.350;2023-04-03T18:58:46;0.50;;;0.50;;
595;SDS011;19946;49.306;11.350;2023-04-03T19:01:47;0.40;;;0.40;;
595;SDS011;19946;49.306;11.350;2023-04-03T19:04:47;0.40;;;0.40;;
595;SDS011;19946;49.306;11.350;2023-04-03T19:07:49;0.47;;;0.47;;
595;SDS011;19946;49.306;11.350;2023-04-03T19:10:50;0.40;;;0.40;;
595;SDS011;19946;49.306;11.350;2023-04-03T19:13:53;0.50;;;0.50;;
595;SDS011;19946;49.306;11.350;2023-04-03T19:16:53;0.50;;;0.50;;
595;SDS011;19946;49.306;11.350;2023-04-03T19:19:55;0.40;;;0.40;;
595;SDS011;19946;49.306;11.350;2023-04-03T19:22:56;0.40;;;0.40;;
595;SDS011;19946;49.306;11.350;2023-04-03T19:26:00;0.50;;;0.50;;
595;SDS011;19946;49.306;11.350;2023-04-03T19:29:04;0.40;;;0.40;;
595;SDS011;19946;49.306;11.350;2023-04-03T19:32:06;0.40;;;0.40;;
595;SDS011;19946;49.306;11.350;2023-04-03T19:35:08;0.40;;;0.40;;
595;SDS011;19946;49.306;11.350;2023-04-03T19:38:10;0.43;;;0.43;;
595;SDS011;19946;49.306;11.350;2023-04-03T19:41:13;0.40;;;0.40;;
595;SDS011;19946;49.306;11.350;2023-04-03T19:44:16;0.40;;;0.40;;
595;SDS011;19946;49.306;11.350;2023-04-03T19:47:17;0.30;;;0.30;;
595;SDS011;19946;49.306;11.350;2023-04-03T19:50:21;0.40;;;0.40;;
595;SDS011;19946;49.306;11.350;2023-04-03T19:53:22;0.30;;;0.30;;
595;SDS011;19946;49.306;11.350;2023-04-03T19:56:27;0.40;;;0.40;;
595;SDS011;19946;49.306;11.350;2023-04-03T19:59:28;0.40;;;0.40;;
595;SDS011;19946;49.306;11.350;2023-04-03T20:02:35;0.30;;;0.30;;
595;SDS011;19946;49.306;11.350;2023-04-03T20:05:35;0.37;;;0.37;;
595;SDS011;19946;49.306;11.350;2023-04-03T20:08:37;0.40;;;0.40;;
595;SDS011;19946;49.306;11.350;2023-04-03T20:11:38;0.30;;;0.30;;
595;SDS011;19946;49.306;11.350;2023-04-03T20:14:41;0.30;;;0.30;;
595;SDS011;19946;49.306;11.350;2023-04-03T20:17:42;0.30;;;0.30;;
595;SDS011;19946;49.306;11.350;2023-04-03T20:20:44;0.30;;;0.30;;
595;SDS011;19946;49.306;11.350;2023-04-03T20:23:52;0.40;;;0.40;;
595;SDS011;19946;49.306;11.350;2023-04-03T20:26:52;0.30;;;0.30;;
595;SDS011;19946;49.306;11.350;2023-04-03T20:29:56;0.40;;;0.40;;
595;SDS011;19946;49.306;11.350;2023-04-03T20:32:56;0.40;;;0.40;;
595;SDS011;19946;49.306;11.350;2023-04-03T20:35:58;0.40;;;0.40;;
595;SDS011;19946;49.306;11.350;2023-04-03T20:39:00;0.40;;;0.40;;
595;SDS011;19946;49.306;11.350;2023-04-03T20:42:00;0.40;;;0.40;;
595;SDS011;19946;49.306;11.350;2023-04-03T20:45:02;0.30;;;0.30;;
595;SDS011;19946;49.306;11.350;2023-04-03T20:48:03;0.40;;;0.40;;
595;SDS011;19946;49.306;11.350;2023-04-03T20:51:12;0.30;;;0.30;;
595;SDS011;19946;49.306;11.350;2023-04-03T20:54:14;0.30;;;0.30;;